Terminal Aerodrome Forecast
Issued by NWS Charleston, WV

Current Version | Previous Version | Text Only | Print | Product List | Glossary Off
Versions: 1 2 3 4 5 6 7 8 9 10 11 12 13 14 15 16 17 18 19 20 21 22 23 24 25 26 27 28 29 30 31 32 33

000
FTUS41 KRLX 191700
TAFHTS
TAF
KHTS 191740Z 1918/2018 15007KT 6SM BR SCT006 OVC035
     FM191900 14007KT P6SM OVC035
     FM200300 00000KT 3SM BR OVC035
     FM201200 00000KT P6SM BKN035=

USA.gov is the U.S. government's official web portal to all federal, state and local government web resources and services.